Terminal Aerodrome Forecast
Issued by NWS Amarillo, TX

Home | Current Version | Previous Version | Text Only | Print | Product List | Glossary On
Versions: 1 2 3 4 5 6 7 8 9 10 11 12 13 14 15 16 17 18 19 20 21 22 23 24 25
525
FTUS44 KAMA 211244 AAA
TAFAMA
TAF AMD
KAMA 211244Z 2113/2212 14005KT P6SM SKC
     FM211600 17013KT P6SM SCT150
     FM220100 15010KT P6SM BKN250
     FM220600 16009KT P6SM SCT080 BKN100 PROB30 2207/2210 -TSRA
      BKN080CB=

USA.gov is the U.S. government's official web portal to all federal, state and local government web resources and services.